Aiseau, Belgium
Current Conditions -  °F | °C
As of 2:50 PM on Wednesday 26 Nov 2014 (Local Time) from EBCI Reporting Station
Haze Haze  
Wind Chill: 46°   Ceiling: 700
Heat Index: 48°   Visibility: 1.5mi
Dew Point: 46°   Wind: 5mph
Humidity: 93%   Direction: 140°SE
Pressure: 29.85"   Gusts: NA
Location:  50.41°N, 4.59°E
Report Text: EBCI 261350Z 14004KT 110V190 2400 BR SCT005 BKN007 09/08 Q1011 TEMPO 3500 BR
Loading
Personal Weather Stations






























Interactive Weather Map New forecast layout! Learn more

10-Day Weather Forecast

Advertisements
Track Severe Weather on mobile